Time;durP1;ratioP1;P1;durP2;ratioP2;P2;SDS_P1;SDS_P2;PMS_P1;PMS_P2;Temp;Humidity;BMP_temperature;BMP_pressure;BME280_temperature;BME280_humidity;BME280_pressure;Samples;Min_cycle;Max_cycle;Signal;HPM_P1;HPM_P2
2023/09/17 00:00:31;;;;;;;9.48;5.45;;;;;;;20.65;100.00;99072.59;5001233;28;20042;-94
2023/09/17 00:02:57;;;;;;;11.15;6.38;;;;;;;20.25;100.00;98997.59;5002076;28;20034;-93
2023/09/17 00:05:22;;;;;;;11.98;5.95;;;;;;;20.26;100.00;99007.44;5002295;28;20099;-93
2023/09/17 00:07:50;;;;;;;10.65;5.95;;;;;;;20.44;100.00;99040.53;5002663;28;20076;-94
2023/09/17 00:10:17;;;;;;;11.32;5.97;;;;;;;20.35;100.00;99015.94;5001600;28;20053;-92
2023/09/17 00:12:43;;;;;;;11.55;6.65;;;;;;;20.43;100.00;99049.59;5002327;28;20133;-93
2023/09/17 00:15:09;;;;;;;9.57;6.57;;;;;;;20.16;100.00;99027.03;5017305;28;20081;-93
2023/09/17 00:17:37;;;;;;;12.02;6.55;;;;;;;19.91;100.00;98998.88;5004090;28;20496;-94
2023/09/17 00:20:06;;;;;;;12.27;6.60;;;;;;;20.06;100.00;99000.59;5006981;28;20158;-93
2023/09/17 00:22:31;;;;;;;11.20;6.00;;;;;;;20.30;100.00;99017.09;5020199;28;20049;-93
2023/09/17 00:24:59;;;;;;;14.95;6.82;;;;;;;20.07;100.00;98988.84;5006934;28;20025;-93
2023/09/17 00:27:25;;;;;;;10.70;6.68;;;;;;;20.32;100.00;99030.50;5006325;28;20034;-92
2023/09/17 00:29:51;;;;;;;14.35;6.88;;;;;;;20.35;100.00;99034.84;5005330;28;20042;-93
2023/09/17 00:32:17;;;;;;;12.65;5.85;;;;;;;20.10;100.00;98994.06;5004947;28;20151;-92
2023/09/17 00:34:42;;;;;;;18.45;6.97;;;;;;;20.45;100.00;99060.28;5006406;28;20121;-94
2023/09/17 00:37:10;;;;;;;12.48;6.13;;;;;;;20.37;100.00;99050.00;5006494;28;20038;-93
2023/09/17 00:39:36;;;;;;;8.82;5.90;;;;;;;20.49;100.00;99065.44;5006396;28;20065;-93
2023/09/17 00:42:04;;;;;;;9.82;6.43;;;;;;;20.11;100.00;98992.22;5003857;28;20046;-94
2023/09/17 00:44:30;;;;;;;10.60;6.07;;;;;;;20.23;100.00;99015.75;5005579;28;20171;-94
2023/09/17 00:46:56;;;;;;;12.88;6.68;;;;;;;20.26;100.00;99026.34;5004038;28;20151;-93
2023/09/17 00:49:22;;;;;;;12.70;6.55;;;;;;;20.33;100.00;99029.53;5005501;28;20046;-93
2023/09/17 00:51:48;;;;;;;10.35;6.35;;;;;;;20.08;100.00;99004.09;5006750;28;20057;-93
2023/09/17 00:54:15;;;;;;;13.15;7.30;;;;;;;20.28;100.00;99027.13;5004856;28;20030;-93
2023/09/17 00:56:42;;;;;;;11.82;6.60;;;;;;;20.11;100.00;99003.88;5005144;28;20042;-94
2023/09/17 00:59:10;;;;;;;13.10;7.05;;;;;;;20.31;100.00;99035.03;5004860;28;20030;-95
2023/09/17 01:01:37;;;;;;;12.70;7.15;;;;;;;20.05;100.00;98982.66;5003370;28;20125;-93
2023/09/17 01:04:03;;;;;;;14.82;7.00;;;;;;;20.48;100.00;99041.22;5004478;28;20149;-95
2023/09/17 01:06:29;;;;;;;11.07;6.80;;;;;;;20.44;100.00;99031.56;5005278;28;20531;-93
2023/09/17 01:08:56;;;;;;;11.95;6.70;;;;;;;20.21;100.00;99009.59;5004805;28;20045;-93
2023/09/17 01:11:22;;;;;;;14.65;6.70;;;;;;;20.07;100.00;98990.66;5019611;28;20134;-94
2023/09/17 01:13:58;;;;;;;12.80;6.65;;;;;;;20.05;100.00;98990.75;5003308;28;20041;-96
2023/09/17 01:16:26;;;;;;;14.95;6.65;;;;;;;19.88;100.00;98963.94;5005085;28;20085;-94
2023/09/17 01:18:53;;;;;;;9.52;6.05;;;;;;;20.09;100.00;99005.81;5003500;28;20050;-95
2023/09/17 01:21:26;;;;;;;12.18;6.40;;;;;;;19.87;100.00;98963.09;5004691;28;20133;-93
2023/09/17 01:24:05;;;;;;;13.75;7.35;;;;;;;20.27;100.00;99019.13;5012830;28;20041;-94
2023/09/17 01:26:36;;;;;;;13.23;6.50;;;;;;;20.12;100.00;98985.84;5018518;28;20052;-94
2023/09/17 01:29:04;;;;;;;11.13;6.72;;;;;;;20.39;100.00;99041.81;5020039;28;20077;-95
2023/09/17 01:31:30;;;;;;;11.27;6.28;;;;;;;20.10;100.00;98998.56;5004334;28;20136;-95
2023/09/17 01:33:56;;;;;;;10.45;5.88;;;;;;;20.39;100.00;99042.66;5005239;28;20054;-95
2023/09/17 01:36:27;;;;;;;15.68;7.65;;;;;;;20.26;100.00;99026.34;5004101;28;20468;-93
2023/09/17 01:38:59;;;;;;;12.50;6.63;;;;;;;20.25;100.00;99035.41;5004733;28;20052;-94
2023/09/17 01:41:27;;;;;;;12.18;6.85;;;;;;;19.79;100.00;98976.19;5005238;28;20059;-93
2023/09/17 01:43:54;;;;;;;10.32;6.32;;;;;;;19.98;100.00;99005.59;5002549;28;20045;-93
2023/09/17 01:46:23;;;;;;;11.13;6.10;;;;;;;20.14;100.00;99035.22;5002895;28;20108;-94
2023/09/17 01:48:49;;;;;;;9.48;5.75;;;;;;;20.03;100.00;99027.78;5003457;28;20037;-94
2023/09/17 01:51:16;;;;;;;10.02;6.28;;;;;;;20.04;100.00;99025.97;5003569;28;20050;-93
2023/09/17 01:53:42;;;;;;;12.00;6.70;;;;;;;19.68;100.00;98973.25;5003851;28;20073;-94
2023/09/17 01:56:08;;;;;;;11.57;6.35;;;;;;;20.04;100.00;99039.47;5020788;28;20049;-95
2023/09/17 01:58:34;;;;;;;13.32;6.90;;;;;;;19.82;100.00;99011.09;5006617;28;20054;-94
2023/09/17 02:01:00;;;;;;;13.18;6.50;;;;;;;19.74;100.00;98989.09;5002185;28;20048;-94
2023/09/17 02:03:28;;;;;;;11.50;6.82;;;;;;;19.53;100.00;98960.69;5002898;28;20484;-94
2023/09/17 02:05:54;;;;;;;12.30;6.70;;;;;;;19.61;100.00;98967.38;5001558;28;20559;-93
2023/09/17 02:08:20;;;;;;;10.02;5.95;;;;;;;19.73;100.00;98981.09;5004307;28;20073;-93
2023/09/17 02:10:46;;;;;;;12.07;6.60;;;;;;;19.47;100.00;98945.75;5002132;28;20052;-95
2023/09/17 02:13:12;;;;;;;12.05;5.90;;;;;;;19.76;100.00;98997.97;5001465;28;20048;-94
2023/09/17 02:15:38;;;;;;;10.50;7.03;;;;;;;19.89;100.00;99017.84;5000980;28;20100;-94
2023/09/17 02:18:05;;;;;;;11.20;6.05;;;;;;;19.86;100.00;99012.66;5001966;28;20065;-93
2023/09/17 02:20:32;;;;;;;11.20;7.50;;;;;;;19.80;100.00;98993.22;5001827;28;20470;-94
2023/09/17 02:22:58;;;;;;;11.48;6.97;;;;;;;19.84;100.00;98986.69;5001472;28;20041;-94
2023/09/17 02:25:24;;;;;;;12.40;8.00;;;;;;;19.88;100.00;99023.31;5000726;28;20396;-94
2023/09/17 02:27:50;;;;;;;10.07;6.75;;;;;;;19.89;100.00;99025.94;5001980;28;20513;-93
2023/09/17 02:30:16;;;;;;;14.60;6.30;;;;;;;19.78;100.00;99012.25;5001955;28;20161;-93
2023/09/17 02:32:44;;;;;;;15.20;7.38;;;;;;;19.54;100.00;98970.50;5002653;28;20038;-95
2023/09/17 02:35:09;;;;;;;10.52;6.68;;;;;;;19.37;100.00;98952.69;4999738;28;20503;-94
2023/09/17 02:37:37;;;;;;;12.02;7.68;;;;;;;19.46;100.00;98952.97;5002131;28;20041;-93
2023/09/17 02:40:08;;;;;;;12.35;6.70;;;;;;;19.72;100.00;98995.56;5001345;28;20044;-95
2023/09/17 02:42:34;;;;;;;12.50;7.75;;;;;;;19.85;100.00;99024.38;5018449;28;20401;-96
2023/09/17 02:45:04;;;;;;;13.70;7.57;;;;;;;19.82;100.00;98999.41;5018304;28;20056;-93
2023/09/17 02:47:31;;;;;;;11.82;6.88;;;;;;;19.48;100.00;98959.16;5000750;28;20077;-94
2023/09/17 02:49:57;;;;;;;15.82;7.65;;;;;;;19.68;100.00;98982.19;5001934;28;20096;-94
2023/09/17 02:52:23;;;;;;;12.90;7.25;;;;;;;19.54;100.00;98965.13;5019116;28;20132;-94
2023/09/17 02:54:50;;;;;;;14.63;7.80;;;;;;;19.47;100.00;98965.50;5018604;28;20045;-93
2023/09/17 02:57:16;;;;;;;11.55;7.13;;;;;;;19.40;100.00;98955.19;5019773;28;20046;-94
2023/09/17 02:59:42;;;;;;;13.55;7.15;;;;;;;19.83;100.00;99014.66;4991294;28;20039;-95
2023/09/17 03:02:09;;;;;;;13.10;6.93;;;;;;;19.52;100.00;98970.63;4994617;28;20085;-93
2023/09/17 03:04:36;;;;;;;13.45;7.15;;;;;;;19.63;100.00;98987.03;4988302;28;20039;-93
2023/09/17 03:07:04;;;;;;;13.65;6.75;;;;;;;19.62;100.00;98987.09;5002383;28;20488;-94
2023/09/17 03:09:30;;;;;;;13.85;7.50;;;;;;;19.58;100.00;98980.16;5001225;28;20492;-94
2023/09/17 03:11:57;;;;;;;12.10;6.03;;;;;;;19.64;100.00;98985.19;5002149;28;20111;-94
2023/09/17 03:14:23;;;;;;;13.57;6.43;;;;;;;19.67;100.00;98988.56;4988668;28;20058;-94
2023/09/17 03:16:49;;;;;;;13.85;7.07;;;;;;;19.66;100.00;98956.28;5003671;28;20084;-93
2023/09/17 03:19:15;;;;;;;11.15;6.57;;;;;;;19.82;100.00;98986.81;5003209;28;20504;-95
2023/09/17 03:21:41;;;;;;;14.30;7.28;;;;;;;19.56;100.00;98942.50;5003654;28;20026;-94
2023/09/17 03:24:07;;;;;;;12.07;7.47;;;;;;;19.54;100.00;98966.00;5004163;28;20041;-94
2023/09/17 03:26:33;;;;;;;11.77;6.93;;;;;;;19.80;100.00;99004.03;5001419;28;20034;-94
2023/09/17 03:29:00;;;;;;;12.30;7.03;;;;;;;19.24;100.00;98917.50;5001885;28;20050;-94
2023/09/17 03:31:26;;;;;;;11.18;6.28;;;;;;;19.34;100.00;98947.44;4995491;28;20046;-94
2023/09/17 03:33:52;;;;;;;14.95;6.72;;;;;;;19.67;100.00;98995.81;5000733;28;20038;-95
2023/09/17 03:36:18;;;;;;;9.45;6.25;;;;;;;19.40;100.00;98930.91;5001651;28;20061;-94
2023/09/17 03:38:44;;;;;;;14.23;6.40;;;;;;;19.31;100.00;98932.31;5002490;28;20042;-94
2023/09/17 03:41:10;;;;;;;13.82;6.25;;;;;;;19.39;100.00;98964.25;5018427;28;20132;-95
2023/09/17 03:43:36;;;;;;;12.95;6.65;;;;;;;19.15;100.00;98945.88;4995561;28;20061;-94
2023/09/17 03:46:07;;;;;;;11.40;6.35;;;;;;;19.41;100.00;99009.03;4999256;28;20077;-95
2023/09/17 03:48:33;;;;;;;12.65;6.63;;;;;;;19.16;100.00;98971.00;5012239;28;20065;-93
2023/09/17 03:51:00;;;;;;;9.57;6.07;;;;;;;19.33;100.00;98991.56;4996311;28;20034;-96
2023/09/17 03:53:27;;;;;;;11.30;5.93;;;;;;;18.98;100.00;98946.84;5022128;28;20046;-95
2023/09/17 03:55:53;;;;;;;12.05;6.55;;;;;;;18.99;100.00;98953.97;5007031;28;20145;-95
2023/09/17 03:58:21;;;;;;;14.63;6.72;;;;;;;19.22;100.00;98993.06;5006029;28;20042;-95
2023/09/17 04:00:48;;;;;;;10.77;6.60;;;;;;;19.01;100.00;98945.81;5005499;28;20038;-95
2023/09/17 04:03:18;;;;;;;14.38;6.78;;;;;;;19.28;100.00;98991.84;5005538;28;20042;-95
2023/09/17 04:05:46;;;;;;;12.25;6.40;;;;;;;19.04;100.00;98949.19;5007419;28;20038;-94
2023/09/17 04:08:12;;;;;;;10.70;7.00;;;;;;;19.28;100.00;98991.84;5006989;28;20049;-93
2023/09/17 04:10:38;;;;;;;10.00;6.00;;;;;;;19.03;100.00;98966.31;5006088;28;20038;-95
2023/09/17 04:13:04;;;;;;;13.23;7.68;;;;;;;19.26;100.00;99000.00;5007662;28;20480;-93
2023/09/17 04:15:30;;;;;;;13.38;6.72;;;;;;;19.18;100.00;98977.16;5006594;28;20034;-94
2023/09/17 04:17:56;;;;;;;10.10;5.82;;;;;;;18.98;100.00;98946.00;5021074;28;20492;-94
2023/09/17 04:20:27;;;;;;;11.13;6.47;;;;;;;18.99;100.00;98967.44;5006761;28;20065;-93
2023/09/17 04:22:53;;;;;;;13.57;6.15;;;;;;;19.15;100.00;98990.81;5024368;28;20133;-94
2023/09/17 04:25:20;;;;;;;13.10;6.85;;;;;;;19.14;100.00;98997.16;5007131;28;20061;-95
2023/09/17 04:27:47;;;;;;;13.40;7.22;;;;;;;19.13;100.00;99012.47;5007782;28;20061;-92
2023/09/17 04:30:15;;;;;;;11.60;6.85;;;;;;;18.88;100.00;98989.63;5007034;28;20100;-94
2023/09/17 04:32:43;;;;;;;11.80;6.78;;;;;;;19.15;100.00;99040.22;5004827;28;20092;-93
2023/09/17 04:35:10;;;;;;;11.02;6.57;;;;;;;18.86;100.00;98987.97;5004494;28;20068;-95
2023/09/17 04:37:39;;;;;;;12.45;9.00;;;;;;;18.98;100.00;99021.47;5005943;28;20411;-93
2023/09/17 04:40:08;;;;;;;11.60;6.85;;;;;;;18.98;100.00;99014.22;5007367;28;20038;-94
2023/09/17 04:42:35;;;;;;;;;;;;;;;19.09;100.00;99037.88;5008178;28;20037;-93
2023/09/17 04:45:02;;;;;;;14.50;6.80;;;;;;;18.94;100.00;99027.97;5007663;28;19931;-93
2023/09/17 04:47:28;;;;;;;10.00;6.20;;;;;;;18.79;100.00;99000.06;5008645;28;20049;-93
2023/09/17 04:49:54;;;;;;;11.98;6.55;;;;;;;18.66;100.00;98979.19;5008355;28;20042;-94
2023/09/17 04:52:20;;;;;;;13.82;6.80;;;;;;;18.80;100.00;99001.81;5007775;28;20053;-94
2023/09/17 04:54:47;;;;;;;10.38;7.20;;;;;;;18.91;100.00;99026.34;5007523;28;20042;-94
2023/09/17 04:57:13;;;;;;;12.20;6.35;;;;;;;18.59;100.00;98975.09;5008222;28;20037;-93
2023/09/17 04:59:39;;;;;;;13.88;6.35;;;;;;;18.48;100.00;98956.88;5007591;28;20045;-94
2023/09/17 05:02:05;;;;;;;12.80;7.50;;;;;;;18.40;100.00;98960.94;5012143;28;20412;-95
2023/09/17 05:04:31;;;;;;;9.52;6.20;;;;;;;18.56;100.00;98982.47;5008231;28;20058;-94
2023/09/17 05:06:57;;;;;;;11.48;6.95;;;;;;;18.92;100.00;99044.22;5007505;28;20057;-93
2023/09/17 05:09:23;;;;;;;11.27;6.68;;;;;;;18.78;100.00;99015.38;5007738;28;20030;-94
2023/09/17 05:11:50;;;;;;;10.32;6.82;;;;;;;18.83;100.00;99023.19;5007472;28;20099;-94
2023/09/17 05:14:16;;;;;;;11.20;6.35;;;;;;;18.63;100.00;98991.97;5006348;28;20077;-94
2023/09/17 05:16:42;;;;;;;12.38;6.40;;;;;;;18.76;100.00;99021.75;5007785;28;20507;-94
2023/09/17 05:19:08;;;;;;;12.90;6.68;;;;;;;19.01;100.00;99050.91;5007475;28;20141;-93
2023/09/17 05:21:34;;;;;;;11.70;6.35;;;;;;;18.74;100.00;98999.44;5008275;28;20129;-94
2023/09/17 05:24:00;;;;;;;14.63;6.00;;;;;;;18.84;100.00;99016.84;5008484;28;20061;-94
2023/09/17 05:26:26;;;;;;;11.90;5.97;;;;;;;19.09;100.00;99041.44;5009471;28;20041;-92
2023/09/17 05:28:54;;;;;;;13.02;6.75;;;;;;;19.14;100.00;99059.16;5008170;28;20038;-94
2023/09/17 05:31:19;;;;;;;12.80;7.15;;;;;;;18.72;100.00;98996.84;5007947;28;20133;-93
2023/09/17 05:33:46;;;;;;;10.25;6.80;;;;;;;18.89;100.00;99012.06;5008610;28;20475;-93
2023/09/17 05:36:11;;;;;;;9.85;6.28;;;;;;;19.46;100.00;99082.44;5008822;28;20049;-95
2023/09/17 05:38:37;;;;;;;11.98;6.75;;;;;;;19.14;100.00;99000.72;5009166;28;20096;-95
2023/09/17 05:41:03;;;;;;;10.05;5.75;;;;;;;19.54;100.00;99063.13;5008333;28;20046;-96
2023/09/17 05:43:29;;;;;;;10.20;5.80;;;;;;;19.16;100.00;98997.94;5008207;28;20492;-95
2023/09/17 05:45:57;;;;;;;8.27;5.30;;;;;;;19.48;100.00;99058.94;5007000;28;20053;-96
2023/09/17 05:48:23;;;;;;;10.48;6.05;;;;;;;19.25;100.00;99011.75;5008022;28;20117;-95
2023/09/17 05:50:50;;;;;;;11.05;6.35;;;;;;;19.33;100.00;99014.00;5007148;28;20061;-95
2023/09/17 05:53:16;;;;;;;8.63;5.32;;;;;;;19.55;100.00;99037.00;5006392;28;20058;-94
2023/09/17 05:55:42;;;;;;;11.27;5.53;;;;;;;19.65;100.00;99027.41;5006020;28;20038;-95
2023/09/17 05:58:08;;;;;;;8.57;6.45;;;;;;;19.58;100.00;99036.81;5006775;28;20108;-95
2023/09/17 06:00:34;;;;;;;9.15;6.00;;;;;;;19.69;100.00;99043.34;5005548;28;20042;-94
2023/09/17 06:03:03;;;;;;;9.68;5.70;;;;;;;19.88;100.00;99053.88;5014789;28;20033;-94
2023/09/17 06:05:29;;;;;;;9.40;6.00;;;;;;;20.15;100.00;99090.97;5012646;28;20073;-94
2023/09/17 06:07:55;;;;;;;11.13;6.30;;;;;;;19.85;100.00;99024.38;5012894;28;20038;-94
2023/09/17 06:10:20;;;;;;;9.75;5.65;;;;;;;19.97;100.00;99030.00;5007389;28;20073;-94
2023/09/17 06:12:47;;;;;;;7.90;5.55;;;;;;;20.14;100.00;99031.66;5011829;28;20484;-93
2023/09/17 06:15:13;;;;;;;8.45;5.78;;;;;;;20.46;100.00;99064.75;5029049;28;20050;-94
2023/09/17 06:17:40;;;;;;;12.63;6.53;;;;;;;20.52;100.00;99059.81;5009891;28;20104;-93
2023/09/17 06:20:08;;;;;;;9.65;5.93;;;;;;;20.78;100.00;99078.94;5021734;28;20196;-94
2023/09/17 06:22:34;;;;;;;9.27;6.07;;;;;;;20.93;100.00;99088.78;5005594;28;20046;-94
2023/09/17 06:25:00;;;;;;;8.85;5.72;;;;;;;20.72;100.00;99052.31;5005731;28;20042;-93
2023/09/17 06:27:26;;;;;;;9.75;6.57;;;;;;;20.66;100.00;99042.75;5006135;28;20048;-93
2023/09/17 06:29:52;;;;;;;8.63;5.70;;;;;;;20.59;100.00;99033.31;5007065;28;20030;-95
2023/09/17 06:32:18;;;;;;;7.57;5.32;;;;;;;20.93;100.00;99082.50;5005339;28;20042;-93
2023/09/17 06:34:44;;;;;;;9.52;5.25;;;;;;;20.70;100.00;99043.44;5002258;28;20049;-93
2023/09/17 06:37:11;;;;;;;8.65;5.38;;;;;;;20.81;100.00;99061.66;5000773;28;20046;-93
2023/09/17 06:39:37;;;;;;;10.40;5.25;;;;;;;20.75;100.00;99053.94;4991376;28;20050;-96
2023/09/17 06:42:04;;;;;;;7.45;5.78;;;;;;;21.23;100.00;99127.44;4991931;28;20042;-94
2023/09/17 06:44:30;;;;;;;8.60;5.70;;;;;;;21.14;100.00;99112.66;4988661;28;20109;-95
2023/09/17 06:46:56;;;;;;;10.02;6.47;;;;;;;21.43;100.00;99123.47;5001224;28;20496;-93
2023/09/17 06:49:22;;;;;;;12.35;7.18;;;;;;;21.26;100.00;99092.09;5001501;28;20407;-92
2023/09/17 06:51:48;;;;;;;9.20;6.28;;;;;;;21.29;100.00;99079.22;5017871;28;20068;-94
2023/09/17 06:54:16;;;;;;;9.68;6.32;;;;;;;21.58;100.00;99110.75;5000673;28;20064;-94
2023/09/17 06:56:42;;;;;;;8.23;5.72;;;;;;;21.50;100.00;99095.88;4999095;28;20137;-94
2023/09/17 06:59:07;;;;;;;9.52;6.22;;;;;;;21.68;100.00;99099.19;4999265;28;20080;-94
2023/09/17 07:01:39;;;;;;;8.15;6.15;;;;;;;21.58;100.00;99079.16;5003160;28;20108;-95
2023/09/17 07:04:08;;;;;;;8.32;5.35;;;;;;;21.82;100.00;99108.25;5015713;28;20042;-96
2023/09/17 07:06:34;;;;;;;9.55;5.68;;;;;;;21.70;100.00;99129.72;5003411;28;20034;-94
2023/09/17 07:09:01;;;;;;;9.38;5.88;;;;;;;21.57;100.00;99118.00;5005109;28;20504;-96
2023/09/17 07:11:29;;;;;;;8.85;5.78;;;;;;;21.67;100.00;99112.84;5021950;28;20042;-94
2023/09/17 07:13:56;;;;;;;8.45;5.85;;;;;;;21.33;100.00;99069.06;5023157;28;20041;-94
2023/09/17 07:16:24;;;;;;;8.02;5.57;;;;;;;21.43;100.00;99074.78;5004343;28;20070;-95
2023/09/17 07:18:51;;;;;;;9.52;6.35;;;;;;;21.54;100.00;99127.19;4996679;28;20135;-95
2023/09/17 07:21:17;;;;;;;9.63;6.35;;;;;;;21.14;100.00;99085.63;4983854;28;20073;-95
2023/09/17 07:23:43;;;;;;;10.07;6.25;;;;;;;20.80;100.00;99111.28;4986980;28;20058;-95
2023/09/17 07:26:10;;;;;;;12.98;7.32;;;;;;;21.05;100.00;99124.94;4987942;28;20188;-94
2023/09/17 07:28:38;;;;;;;10.65;7.03;;;;;;;20.84;100.00;99066.84;4987986;28;20050;-96
2023/09/17 07:31:07;;;;;;;11.55;6.28;;;;;;;21.32;100.00;99145.78;4983720;28;20122;-95
2023/09/17 07:33:33;;;;;;;12.52;7.57;;;;;;;20.89;100.00;99071.00;4986064;28;20500;-96
2023/09/17 07:35:59;;;;;;;10.88;7.18;;;;;;;20.76;100.00;99086.28;4998946;28;20096;-95
2023/09/17 07:38:25;;;;;;;10.73;7.53;;;;;;;21.08;100.00;99103.13;5005282;28;20034;-94
2023/09/17 07:40:52;;;;;;;12.02;7.90;;;;;;;21.51;100.00;99146.34;5010765;28;20044;-96
2023/09/17 07:43:20;;;;;;;12.73;7.50;;;;;;;21.31;100.00;99077.28;5010243;28;20104;-96
2023/09/17 07:45:47;;;;;;;11.00;7.13;;;;;;;21.51;100.00;99089.53;5007860;28;20124;-96
2023/09/17 07:48:13;;;;;;;12.18;7.60;;;;;;;22.09;100.00;99132.53;5007080;28;20074;-96
2023/09/17 07:50:40;;;;;;;10.95;7.13;;;;;;;22.14;100.00;99077.09;5006251;28;20056;-96
2023/09/17 07:53:07;;;;;;;10.45;7.28;;;;;;;22.67;100.00;99117.66;5021970;28;20042;-94
2023/09/17 07:55:33;;;;;;;12.02;7.88;;;;;;;22.24;100.00;99095.44;4986877;28;20057;-95
2023/09/17 07:57:59;;;;;;;13.15;9.48;;;;;;;22.46;100.00;99075.81;4985552;28;20404;-95
2023/09/17 08:00:25;;;;;;;13.52;8.13;;;;;;;23.01;100.00;99130.66;4985786;28;20051;-96
2023/09/17 08:02:54;;;;;;;13.63;8.10;;;;;;;22.85;100.00;99076.63;4988043;28;20053;-94
2023/09/17 08:05:20;;;;;;;15.43;8.32;;;;;;;22.12;100.00;99092.59;4988970;28;20053;-94
2023/09/17 08:07:45;;;;;;;11.63;7.88;;;;;;;22.85;100.00;99098.34;4983762;28;20038;-94
2023/09/17 08:10:11;;;;;;;10.65;7.30;;;;;;;23.30;100.00;99133.97;5001802;28;20043;-94
2023/09/17 08:12:38;;;;;;;13.48;7.95;;;;;;;23.49;100.00;99106.34;4985489;28;20053;-93
2023/09/17 08:15:05;;;;;;;11.50;7.80;;;;;;;22.91;100.00;99079.78;4988709;28;20069;-94
2023/09/17 08:17:31;;;;;;;11.68;7.30;;;;;;;22.99;100.00;99084.66;4986138;28;20053;-94
2023/09/17 08:19:59;;;;;;;11.98;8.38;;;;;;;23.35;100.00;99085.63;4998097;28;20534;-93
2023/09/17 08:22:27;;;;;;;12.43;7.45;;;;;;;23.94;100.00;99109.25;5015524;28;20041;-93
2023/09/17 08:24:53;;;;;;;10.75;6.90;;;;;;;24.54;100.00;99139.97;5003208;28;20046;-94
2023/09/17 08:27:19;;;;;;;12.20;6.93;;;;;;;24.58;100.00;99120.56;5004422;28;20065;-96
2023/09/17 08:29:45;;;;;;;11.95;7.18;;;;;;;24.62;100.00;99080.41;5004215;28;20046;-95
2023/09/17 08:32:12;;;;;;;9.23;6.10;;;;;;;24.70;100.00;99083.41;5004074;28;20554;-95
2023/09/17 08:34:40;;;;;;;11.82;7.38;;;;;;;25.15;100.00;99102.38;5019463;28;20042;-95
2023/09/17 08:37:07;;;;;;;9.27;6.22;;;;;;;25.41;100.00;99118.47;5004580;28;20048;-96
2023/09/17 08:39:33;;;;;;;9.85;7.43;;;;;;;25.41;100.00;99081.19;5028822;28;20072;-95
2023/09/17 08:42:00;;;;;;;14.45;7.38;;;;;;;25.67;100.00;99102.66;5011357;28;20042;-94
2023/09/17 08:44:27;;;;;;;10.07;6.57;;;;;;;25.78;100.00;99093.56;5011783;28;20546;-95
2023/09/17 08:46:57;;;;;;;16.73;8.60;;;;;;;25.66;100.00;99122.72;5029073;28;20030;-95
2023/09/17 08:49:23;;;;;;;8.60;7.03;;;;;;;25.80;100.00;99086.16;5029838;28;20034;-95
2023/09/17 08:51:52;;;;;;;12.98;7.07;;;;;;;26.14;100.00;99146.84;5012467;28;20085;-94
2023/09/17 08:54:24;;;;;;;11.52;6.40;;;;;;;26.02;100.00;99101.53;5011632;28;20049;-94
2023/09/17 08:56:54;;;;;;;12.02;6.90;;;;;;;26.23;100.00;99120.66;5010634;28;20042;-95
2023/09/17 08:59:24;;;;;;;10.07;6.90;;;;;;;25.98;100.00;99075.56;5008963;28;20038;-95
2023/09/17 09:01:53;;;;;;;11.40;7.18;;;;;;;26.36;100.00;99099.50;5011072;28;20210;-95
2023/09/17 09:04:23;;;;;;;11.60;7.53;;;;;;;26.33;100.00;99074.38;5008309;28;20050;-95
2023/09/17 09:06:50;;;;;;;11.25;7.30;;;;;;;26.29;100.00;99071.06;5005357;28;20038;-95
2023/09/17 09:09:19;;;;;;;12.98;7.38;;;;;;;26.54;100.00;99107.06;5004231;28;20077;-93
2023/09/17 09:11:47;;;;;;;12.00;6.88;;;;;;;26.55;100.00;99111.53;5003217;28;20034;-93
2023/09/17 09:14:14;;;;;;;9.85;6.05;;;;;;;26.87;100.00;99107.81;5003515;28;20045;-93
2023/09/17 09:16:40;;;;;;;9.50;6.82;;;;;;;26.83;100.00;99064.47;5001671;28;20042;-92
2023/09/17 09:19:07;;;;;;;14.02;7.80;;;;;;;26.67;100.00;99096.81;4996429;28;20385;-92
2023/09/17 09:21:33;;;;;;;9.90;6.97;;;;;;;26.78;100.00;99077.66;4984246;28;20042;-94
2023/09/17 09:23:59;;;;;;;9.27;6.70;;;;;;;27.42;100.00;99113.81;4983557;28;20089;-94
2023/09/17 09:26:33;;;;;;;10.27;6.32;;;;;;;27.56;98.62;99074.28;4983261;28;20022;-93
2023/09/17 09:29:01;;;;;;;13.25;6.20;;;;;;;27.76;96.22;99078.75;4983682;28;20042;-94
2023/09/17 09:31:29;;;;;;;10.63;6.60;;;;;;;27.57;95.12;99065.94;4983098;28;20066;-94
2023/09/17 09:33:59;;;;;;;10.60;6.85;;;;;;;27.99;93.41;99109.41;4982531;28;20038;-93
2023/09/17 09:36:27;;;;;;;10.02;6.00;;;;;;;27.28;94.09;99059.56;4983366;28;20108;-91
2023/09/17 09:38:56;;;;;;;11.15;7.15;;;;;;;27.59;94.83;99093.13;4982075;28;20050;-93
2023/09/17 09:41:22;;;;;;;10.90;6.60;;;;;;;27.59;92.16;99060.34;4986883;28;20232;-93
2023/09/17 09:43:49;;;;;;;9.95;6.25;;;;;;;27.08;91.39;99048.59;4987089;28;20178;-91
2023/09/17 09:46:16;;;;;;;9.15;6.70;;;;;;;27.43;91.55;99041.78;5001782;28;20042;-93
2023/09/17 09:48:46;;;;;;;12.88;7.18;;;;;;;28.06;93.29;99101.50;4985296;28;20133;-92
2023/09/17 09:51:16;;;;;;;9.73;6.32;;;;;;;27.94;91.49;99037.94;4982303;28;20105;-91
2023/09/17 09:53:41;;;;;;;;;;;;;;;28.55;87.37;99098.72;4995605;28;20420;-95
2023/09/17 09:56:07;;;;;;;8.95;5.88;;;;;;;28.02;83.36;99064.56;4981288;28;20033;-93
2023/09/17 09:58:33;;;;;;;11.15;7.05;;;;;;;28.36;85.75;99100.47;4982771;28;20096;-92
2023/09/17 10:01:02;;;;;;;13.07;6.80;;;;;;;28.29;85.78;99080.19;4984688;28;20103;-91
2023/09/17 10:03:29;;;;;;;;;;;;;;;28.69;80.24;99100.97;4984539;28;20039;-92
2023/09/17 10:06:06;;;;;;;10.60;5.00;;;;;;;28.91;78.14;99076.97;4990512;28;20660;-94
2023/09/17 10:08:33;;;;;;;7.80;5.05;;;;;;;28.82;73.43;99081.47;4998223;28;20514;-92
2023/09/17 10:10:59;;;;;;;11.77;6.57;;;;;;;28.81;74.58;99107.16;4983549;28;20395;-94
2023/09/17 10:13:25;;;;;;;10.45;4.68;;;;;;;28.71;68.12;99096.22;4981518;28;20038;-93
2023/09/17 10:15:52;;;;;;;9.20;5.13;;;;;;;28.87;60.03;99069.09;4983591;28;20060;-93
2023/09/17 10:18:20;;;;;;;9.10;5.40;;;;;;;28.92;59.22;99081.47;5000763;28;20173;-94
2023/09/17 10:20:51;;;;;;;8.38;5.10;;;;;;;28.49;58.89;99031.78;4988139;28;20070;-94
2023/09/17 10:23:20;;;;;;;9.20;4.80;;;;;;;28.51;56.91;99050.78;4988055;28;20102;-95
2023/09/17 10:25:48;;;;;;;9.20;4.82;;;;;;;28.69;60.62;99079.09;4983758;28;20064;-95
2023/09/17 10:28:15;;;;;;;8.35;5.47;;;;;;;28.56;59.25;99048.47;4971172;28;20404;-95
2023/09/17 10:30:44;;;;;;;6.65;4.45;;;;;;;28.69;58.97;99062.66;4983468;28;20522;-94
2023/09/17 10:33:11;;;;;;;8.75;4.80;;;;;;;28.91;59.45;99076.97;4985388;28;20042;-93
2023/09/17 10:35:39;;;;;;;8.55;4.22;;;;;;;28.79;58.47;99077.19;5001849;28;20049;-95
2023/09/17 10:38:07;;;;;;;9.65;4.45;;;;;;;28.98;59.17;99080.84;4996332;28;20129;-93
2023/09/17 10:40:35;;;;;;;6.95;5.60;;;;;;;28.61;58.46;99051.63;4985539;28;20392;-93
2023/09/17 10:43:02;;;;;;;10.77;5.07;;;;;;;27.98;58.66;99033.91;4980108;28;20504;-92
2023/09/17 10:45:32;;;;;;;6.97;4.35;;;;;;;28.56;58.08;99043.88;4980820;28;20042;-92
2023/09/17 10:48:01;;;;;;;6.80;4.53;;;;;;;28.91;56.66;99055.97;4981234;28;20097;-93
2023/09/17 10:50:28;;;;;;;9.85;3.83;;;;;;;29.16;55.06;99069.97;4988105;28;20092;-93
2023/09/17 10:52:54;;;;;;;10.25;5.05;;;;;;;29.19;59.01;99070.53;4980468;28;20047;-92
2023/09/17 10:55:23;;;;;;;10.18;4.93;;;;;;;28.89;55.84;99022.41;4980338;28;20125;-94
2023/09/17 10:57:52;;;;;;;;;;;;;;;28.97;55.26;99087.31;4987586;28;20133;-95
2023/09/17 11:00:22;;;;;;;7.95;3.80;;;;;;;28.95;55.62;99078.41;4981955;28;19928;-94
2023/09/17 11:02:54;;;;;;;8.10;4.05;;;;;;;28.84;55.81;99042.03;4997298;28;20038;-93
2023/09/17 11:05:24;;;;;;;9.98;4.55;;;;;;;29.32;55.93;99088.47;4980901;28;20541;-95
2023/09/17 11:07:52;;;;;;;9.55;4.22;;;;;;;29.24;56.52;99038.06;4982068;28;20050;-92
2023/09/17 11:10:19;;;;;;;7.43;3.63;;;;;;;29.23;53.40;99066.50;4980093;28;20053;-93
2023/09/17 11:12:47;;;;;;;7.43;3.63;;;;;;;29.35;53.44;99083.56;4999015;28;20508;-92
2023/09/17 11:15:13;;;;;;;11.88;4.05;;;;;;;29.38;52.28;99068.69;4977516;28;20121;-93
2023/09/17 11:17:40;;;;;;;10.48;3.95;;;;;;;28.92;51.51;99065.88;4980935;28;20039;-93
2023/09/17 11:20:12;;;;;;;8.73;3.70;;;;;;;28.86;51.74;99055.53;4994861;28;20144;-92